sensor_id;sensor_type;location;lat;lon;timestamp;temperature;humidity
52513;DHT22;38422;53.172;6.974;2023-12-14T00:01:14;5.20;99.90
52513;DHT22;38422;53.172;6.974;2023-12-14T00:03:41;5.20;99.90
52513;DHT22;38422;53.172;6.974;2023-12-14T00:06:16;5.20;99.90
52513;DHT22;38422;53.172;6.974;2023-12-14T00:08:41;5.20;99.90
52513;DHT22;38422;53.172;6.974;2023-12-14T00:11:09;5.20;99.90
52513;DHT22;38422;53.172;6.974;2023-12-14T00:13:34;5.10;99.90
52513;DHT22;38422;53.172;6.974;2023-12-14T00:16:01;5.10;99.90
52513;DHT22;38422;53.172;6.974;2023-12-14T00:18:27;5.10;99.90
52513;DHT22;38422;53.172;6.974;2023-12-14T00:20:52;5.10;99.90
52513;DHT22;38422;53.172;6.974;2023-12-14T00:23:20;5.10;99.90
52513;DHT22;38422;53.172;6.974;2023-12-14T00:25:45;5.10;99.90
52513;DHT22;38422;53.172;6.974;2023-12-14T00:28:11;5.10;99.90
52513;DHT22;38422;53.172;6.974;2023-12-14T00:30:37;5.10;99.90
52513;DHT22;38422;53.172;6.974;2023-12-14T00:33:03;5.10;99.90
52513;DHT22;38422;53.172;6.974;2023-12-14T00:35:28;5.10;99.90
52513;DHT22;38422;53.172;6.974;2023-12-14T00:37:54;5.10;99.90
52513;DHT22;38422;53.172;6.974;2023-12-14T00:40:20;5.10;99.90
52513;DHT22;38422;53.172;6.974;2023-12-14T00:42:45;5.10;99.90
52513;DHT22;38422;53.172;6.974;2023-12-14T00:45:11;5.10;99.90
52513;DHT22;38422;53.172;6.974;2023-12-14T00:47:37;5.10;99.90
52513;DHT22;38422;53.172;6.974;2023-12-14T00:50:03;5.10;99.90
52513;DHT22;38422;53.172;6.974;2023-12-14T00:52:29;5.10;99.90
52513;DHT22;38422;53.172;6.974;2023-12-14T00:54:54;5.00;99.90
52513;DHT22;38422;53.172;6.974;2023-12-14T00:57:20;5.00;99.90
52513;DHT22;38422;53.172;6.974;2023-12-14T00:59:46;5.00;99.90
52513;DHT22;38422;53.172;6.974;2023-12-14T01:02:12;5.00;99.90
52513;DHT22;38422;53.172;6.974;2023-12-14T01:04:37;5.00;99.90
52513;DHT22;38422;53.172;6.974;2023-12-14T01:07:04;5.00;99.90
52513;DHT22;38422;53.172;6.974;2023-12-14T01:09:30;5.10;99.90
52513;DHT22;38422;53.172;6.974;2023-12-14T01:11:55;5.10;99.90
52513;DHT22;38422;53.172;6.974;2023-12-14T01:14:21;5.10;99.90
52513;DHT22;38422;53.172;6.974;2023-12-14T01:16:47;5.10;99.90
52513;DHT22;38422;53.172;6.974;2023-12-14T01:19:12;5.10;99.90
52513;DHT22;38422;53.172;6.974;2023-12-14T01:21:38;5.10;99.90
52513;DHT22;38422;53.172;6.974;2023-12-14T01:24:04;5.10;99.90
52513;DHT22;38422;53.172;6.974;2023-12-14T01:26:30;5.00;99.90
52513;DHT22;38422;53.172;6.974;2023-12-14T01:28:55;5.00;99.90
52513;DHT22;38422;53.172;6.974;2023-12-14T01:31:21;5.00;99.90
52513;DHT22;38422;53.172;6.974;2023-12-14T01:33:50;5.10;99.90
52513;DHT22;38422;53.172;6.974;2023-12-14T01:36:24;5.10;99.90
52513;DHT22;38422;53.172;6.974;2023-12-14T01:38:50;5.10;99.90
52513;DHT22;38422;53.172;6.974;2023-12-14T01:41:16;5.10;99.90
52513;DHT22;38422;53.172;6.974;2023-12-14T01:43:41;5.10;99.90
52513;DHT22;38422;53.172;6.974;2023-12-14T01:46:07;5.10;99.90
52513;DHT22;38422;53.172;6.974;2023-12-14T01:48:33;5.00;99.90
52513;DHT22;38422;53.172;6.974;2023-12-14T01:50:59;5.00;99.90
52513;DHT22;38422;53.172;6.974;2023-12-14T01:53:25;5.00;99.90
52513;DHT22;38422;53.172;6.974;2023-12-14T01:55:50;5.00;99.90
52513;DHT22;38422;53.172;6.974;2023-12-14T01:58:16;5.00;99.90
52513;DHT22;38422;53.172;6.974;2023-12-14T02:03:16;5.00;99.90
52513;DHT22;38422;53.172;6.974;2023-12-14T02:05:42;5.00;99.90
52513;DHT22;38422;53.172;6.974;2023-12-14T02:08:08;5.00;99.90
52513;DHT22;38422;53.172;6.974;2023-12-14T02:10:34;5.00;99.90
52513;DHT22;38422;53.172;6.974;2023-12-14T02:13:03;5.00;99.90
52513;DHT22;38422;53.172;6.974;2023-12-14T02:15:28;5.00;99.90
52513;DHT22;38422;53.172;6.974;2023-12-14T02:17:55;5.00;99.90
52513;DHT22;38422;53.172;6.974;2023-12-14T02:20:20;5.00;99.90
52513;DHT22;38422;53.172;6.974;2023-12-14T02:22:53;5.00;99.90
52513;DHT22;38422;53.172;6.974;2023-12-14T02:25:20;5.00;99.90
52513;DHT22;38422;53.172;6.974;2023-12-14T02:27:46;5.00;99.90
52513;DHT22;38422;53.172;6.974;2023-12-14T02:30:13;5.00;99.90
52513;DHT22;38422;53.172;6.974;2023-12-14T02:32:39;5.00;99.90
52513;DHT22;38422;53.172;6.974;2023-12-14T02:35:05;5.00;99.90
52513;DHT22;38422;53.172;6.974;2023-12-14T02:37:32;5.00;99.90
52513;DHT22;38422;53.172;6.974;2023-12-14T02:39:59;5.00;99.90
52513;DHT22;38422;53.172;6.974;2023-12-14T02:42:24;5.00;99.90
52513;DHT22;38422;53.172;6.974;2023-12-14T02:44:50;5.00;99.90
52513;DHT22;38422;53.172;6.974;2023-12-14T02:47:16;5.00;99.90
52513;DHT22;38422;53.172;6.974;2023-12-14T02:49:43;5.00;99.90
52513;DHT22;38422;53.172;6.974;2023-12-14T02:52:09;5.00;99.90
52513;DHT22;38422;53.172;6.974;2023-12-14T02:54:36;5.00;99.90
52513;DHT22;38422;53.172;6.974;2023-12-14T02:57:01;5.00;99.90
52513;DHT22;38422;53.172;6.974;2023-12-14T02:59:27;5.00;99.90
52513;DHT22;38422;53.172;6.974;2023-12-14T03:01:53;5.00;99.90
52513;DHT22;38422;53.172;6.974;2023-12-14T03:04:18;5.00;99.90
52513;DHT22;38422;53.172;6.974;2023-12-14T03:06:44;5.00;99.90
52513;DHT22;38422;53.172;6.974;2023-12-14T03:09:10;5.00;99.90
52513;DHT22;38422;53.172;6.974;2023-12-14T03:11:35;4.90;99.90
52513;DHT22;38422;53.172;6.974;2023-12-14T03:14:01;4.90;99.90
52513;DHT22;38422;53.172;6.974;2023-12-14T03:16:26;4.90;99.90
52513;DHT22;38422;53.172;6.974;2023-12-14T03:18:52;4.90;99.90
52513;DHT22;38422;53.172;6.974;2023-12-14T03:21:19;4.90;99.90
52513;DHT22;38422;53.172;6.974;2023-12-14T03:23:45;4.90;99.90
52513;DHT22;38422;53.172;6.974;2023-12-14T03:26:11;4.90;99.90
52513;DHT22;38422;53.172;6.974;2023-12-14T03:28:37;4.90;99.90
52513;DHT22;38422;53.172;6.974;2023-12-14T03:31:03;4.90;99.90
52513;DHT22;38422;53.172;6.974;2023-12-14T03:33:28;4.90;99.90
52513;DHT22;38422;53.172;6.974;2023-12-14T03:35:55;4.90;99.90
52513;DHT22;38422;53.172;6.974;2023-12-14T03:38:21;4.90;99.90
52513;DHT22;38422;53.172;6.974;2023-12-14T03:40:46;4.90;99.90
52513;DHT22;38422;53.172;6.974;2023-12-14T03:43:12;4.90;99.90
52513;DHT22;38422;53.172;6.974;2023-12-14T03:45:38;4.80;99.90
52513;DHT22;38422;53.172;6.974;2023-12-14T03:48:03;4.80;99.90
52513;DHT22;38422;53.172;6.974;2023-12-14T03:50:29;4.80;99.90
52513;DHT22;38422;53.172;6.974;2023-12-14T03:52:55;4.80;99.90
52513;DHT22;38422;53.172;6.974;2023-12-14T03:55:20;4.80;99.90
52513;DHT22;38422;53.172;6.974;2023-12-14T03:57:46;4.80;99.90
52513;DHT22;38422;53.172;6.974;2023-12-14T04:00:13;4.80;99.90
52513;DHT22;38422;53.172;6.974;2023-12-14T04:02:39;4.80;99.90
52513;DHT22;38422;53.172;6.974;2023-12-14T04:05:06;4.80;99.90
52513;DHT22;38422;53.172;6.974;2023-12-14T04:07:37;4.80;99.90
52513;DHT22;38422;53.172;6.974;2023-12-14T04:10:09;4.80;99.90
52513;DHT22;38422;53.172;6.974;2023-12-14T04:12:38;4.80;99.90
52513;DHT22;38422;53.172;6.974;2023-12-14T04:15:05;4.80;99.90
52513;DHT22;38422;53.172;6.974;2023-12-14T04:17:32;4.80;99.90
52513;DHT22;38422;53.172;6.974;2023-12-14T04:19:58;4.80;99.90
52513;DHT22;38422;53.172;6.974;2023-12-14T04:22:24;4.80;99.90
52513;DHT22;38422;53.172;6.974;2023-12-14T04:24:50;4.80;99.90
52513;DHT22;38422;53.172;6.974;2023-12-14T04:27:16;4.80;99.90
52513;DHT22;38422;53.172;6.974;2023-12-14T04:29:42;4.80;99.90
52513;DHT22;38422;53.172;6.974;2023-12-14T04:32:08;4.80;99.90
52513;DHT22;38422;53.172;6.974;2023-12-14T04:34:34;4.70;99.90
52513;DHT22;38422;53.172;6.974;2023-12-14T04:36:59;4.70;99.90
52513;DHT22;38422;53.172;6.974;2023-12-14T04:39:25;4.70;99.90
52513;DHT22;38422;53.172;6.974;2023-12-14T04:41:51;4.70;99.90
52513;DHT22;38422;53.172;6.974;2023-12-14T04:44:20;4.70;99.90
52513;DHT22;38422;53.172;6.974;2023-12-14T04:46:47;4.70;99.90
52513;DHT22;38422;53.172;6.974;2023-12-14T04:49:13;4.70;99.90
52513;DHT22;38422;53.172;6.974;2023-12-14T04:51:39;4.70;99.90
52513;DHT22;38422;53.172;6.974;2023-12-14T04:54:06;4.70;99.90
52513;DHT22;38422;53.172;6.974;2023-12-14T04:56:32;4.80;99.90
52513;DHT22;38422;53.172;6.974;2023-12-14T04:58:57;4.80;99.90
52513;DHT22;38422;53.172;6.974;2023-12-14T05:01:24;4.80;99.90
52513;DHT22;38422;53.172;6.974;2023-12-14T05:03:52;4.80;99.90
52513;DHT22;38422;53.172;6.974;2023-12-14T05:06:18;4.80;99.90
52513;DHT22;38422;53.172;6.974;2023-12-14T05:08:44;4.80;99.90
52513;DHT22;38422;53.172;6.974;2023-12-14T05:11:10;4.80;99.90
52513;DHT22;38422;53.172;6.974;2023-12-14T05:13:35;4.80;99.90
52513;DHT22;38422;53.172;6.974;2023-12-14T05:16:01;4.80;99.90
52513;DHT22;38422;53.172;6.974;2023-12-14T05:18:27;4.80;99.90
52513;DHT22;38422;53.172;6.974;2023-12-14T05:20:53;4.80;99.90
52513;DHT22;38422;53.172;6.974;2023-12-14T05:23:19;4.80;99.90
52513;DHT22;38422;53.172;6.974;2023-12-14T05:25:45;4.80;99.90
52513;DHT22;38422;53.172;6.974;2023-12-14T05:28:10;4.80;99.90
52513;DHT22;38422;53.172;6.974;2023-12-14T05:30:36;4.80;99.90
52513;DHT22;38422;53.172;6.974;2023-12-14T05:33:02;4.80;99.90
52513;DHT22;38422;53.172;6.974;2023-12-14T05:35:28;4.90;99.90
52513;DHT22;38422;53.172;6.974;2023-12-14T05:37:53;4.80;99.90
52513;DHT22;38422;53.172;6.974;2023-12-14T05:40:19;4.80;99.90
52513;DHT22;38422;53.172;6.974;2023-12-14T05:42:45;4.80;99.90
52513;DHT22;38422;53.172;6.974;2023-12-14T05:45:11;4.90;99.90
52513;DHT22;38422;53.172;6.974;2023-12-14T05:47:36;4.90;99.90
52513;DHT22;38422;53.172;6.974;2023-12-14T05:50:04;4.90;99.90
52513;DHT22;38422;53.172;6.974;2023-12-14T05:52:30;4.90;99.90
52513;DHT22;38422;53.172;6.974;2023-12-14T05:54:56;4.90;99.90
52513;DHT22;38422;53.172;6.974;2023-12-14T05:57:21;4.90;99.90
52513;DHT22;38422;53.172;6.974;2023-12-14T05:59:49;4.90;99.90
52513;DHT22;38422;53.172;6.974;2023-12-14T06:02:15;4.90;99.90
52513;DHT22;38422;53.172;6.974;2023-12-14T06:04:41;4.90;99.90
52513;DHT22;38422;53.172;6.974;2023-12-14T06:07:06;4.90;99.90
52513;DHT22;38422;53.172;6.974;2023-12-14T06:09:32;4.90;99.90
52513;DHT22;38422;53.172;6.974;2023-12-14T06:12:04;4.90;99.90
52513;DHT22;38422;53.172;6.974;2023-12-14T06:14:30;4.90;99.90
52513;DHT22;38422;53.172;6.974;2023-12-14T06:16:56;4.90;99.90
52513;DHT22;38422;53.172;6.974;2023-12-14T06:19:22;4.90;99.90
52513;DHT22;38422;53.172;6.974;2023-12-14T06:21:48;4.90;99.90
52513;DHT22;38422;53.172;6.974;2023-12-14T06:24:14;4.90;99.90
52513;DHT22;38422;53.172;6.974;2023-12-14T06:26:46;4.90;99.90
52513;DHT22;38422;53.172;6.974;2023-12-14T06:29:12;4.90;99.90
52513;DHT22;38422;53.172;6.974;2023-12-14T06:31:38;4.90;99.90
52513;DHT22;38422;53.172;6.974;2023-12-14T06:34:05;4.90;99.90
52513;DHT22;38422;53.172;6.974;2023-12-14T06:36:31;4.90;99.90
52513;DHT22;38422;53.172;6.974;2023-12-14T06:39:01;4.90;99.90
52513;DHT22;38422;53.172;6.974;2023-12-14T06:41:28;4.90;99.90
52513;DHT22;38422;53.172;6.974;2023-12-14T06:43:54;4.90;99.90
52513;DHT22;38422;53.172;6.974;2023-12-14T06:46:20;4.90;99.90
52513;DHT22;38422;53.172;6.974;2023-12-14T06:48:47;4.90;99.90
52513;DHT22;38422;53.172;6.974;2023-12-14T06:51:13;4.90;99.90
52513;DHT22;38422;53.172;6.974;2023-12-14T06:53:40;4.90;99.90
52513;DHT22;38422;53.172;6.974;2023-12-14T06:56:07;4.90;99.90
52513;DHT22;38422;53.172;6.974;2023-12-14T06:58:45;4.90;99.90
52513;DHT22;38422;53.172;6.974;2023-12-14T07:01:14;4.90;99.90
52513;DHT22;38422;53.172;6.974;2023-12-14T07:03:41;4.90;99.90
52513;DHT22;38422;53.172;6.974;2023-12-14T07:06:15;4.90;99.90
52513;DHT22;38422;53.172;6.974;2023-12-14T07:08:41;4.80;99.90
52513;DHT22;38422;53.172;6.974;2023-12-14T07:11:10;4.80;99.90
52513;DHT22;38422;53.172;6.974;2023-12-14T07:13:37;4.80;99.90
52513;DHT22;38422;53.172;6.974;2023-12-14T07:16:07;4.80;99.90
52513;DHT22;38422;53.172;6.974;2023-12-14T07:18:34;4.90;99.90
52513;DHT22;38422;53.172;6.974;2023-12-14T07:21:01;4.80;99.90
52513;DHT22;38422;53.172;6.974;2023-12-14T07:23:27;4.90;99.90
52513;DHT22;38422;53.172;6.974;2023-12-14T07:25:53;4.80;99.90
52513;DHT22;38422;53.172;6.974;2023-12-14T07:28:18;4.90;99.90
52513;DHT22;38422;53.172;6.974;2023-12-14T07:30:45;4.90;99.90
52513;DHT22;38422;53.172;6.974;2023-12-14T07:33:12;4.90;99.90
52513;DHT22;38422;53.172;6.974;2023-12-14T07:35:38;4.90;99.90
52513;DHT22;38422;53.172;6.974;2023-12-14T07:38:04;4.90;99.90
52513;DHT22;38422;53.172;6.974;2023-12-14T07:40:30;4.90;99.90
52513;DHT22;38422;53.172;6.974;2023-12-14T07:42:55;4.90;99.90
52513;DHT22;38422;53.172;6.974;2023-12-14T07:45:21;4.90;99.90
52513;DHT22;38422;53.172;6.974;2023-12-14T07:47:47;4.80;99.90
52513;DHT22;38422;53.172;6.974;2023-12-14T07:50:12;4.80;99.90
52513;DHT22;38422;53.172;6.974;2023-12-14T07:52:39;4.90;99.90
52513;DHT22;38422;53.172;6.974;2023-12-14T07:55:05;4.90;99.90
52513;DHT22;38422;53.172;6.974;2023-12-14T07:57:31;4.80;99.90
52513;DHT22;38422;53.172;6.974;2023-12-14T07:59:57;4.80;99.90
52513;DHT22;38422;53.172;6.974;2023-12-14T08:02:23;4.80;99.90
52513;DHT22;38422;53.172;6.974;2023-12-14T08:04:49;4.80;99.90
52513;DHT22;38422;53.172;6.974;2023-12-14T08:07:14;4.80;99.90
52513;DHT22;38422;53.172;6.974;2023-12-14T08:09:40;4.80;99.90
52513;DHT22;38422;53.172;6.974;2023-12-14T08:12:06;4.80;99.90
52513;DHT22;38422;53.172;6.974;2023-12-14T08:14:35;4.80;99.90
52513;DHT22;38422;53.172;6.974;2023-12-14T08:17:03;4.80;99.90
52513;DHT22;38422;53.172;6.974;2023-12-14T08:19:28;4.80;99.90
52513;DHT22;38422;53.172;6.974;2023-12-14T08:22:00;4.80;99.90
52513;DHT22;38422;53.172;6.974;2023-12-14T08:24:26;4.80;99.90
52513;DHT22;38422;53.172;6.974;2023-12-14T08:26:51;4.80;99.90
52513;DHT22;38422;53.172;6.974;2023-12-14T08:29:17;4.80;99.90
52513;DHT22;38422;53.172;6.974;2023-12-14T08:31:43;4.90;99.90
52513;DHT22;38422;53.172;6.974;2023-12-14T08:34:08;4.80;99.90
52513;DHT22;38422;53.172;6.974;2023-12-14T08:36:34;4.90;99.90
52513;DHT22;38422;53.172;6.974;2023-12-14T08:39:00;4.90;99.90
52513;DHT22;38422;53.172;6.974;2023-12-14T08:41:25;4.90;99.90
52513;DHT22;38422;53.172;6.974;2023-12-14T08:43:51;4.90;99.90
52513;DHT22;38422;53.172;6.974;2023-12-14T08:46:17;4.90;99.90
52513;DHT22;38422;53.172;6.974;2023-12-14T08:48:42;4.90;99.90
52513;DHT22;38422;53.172;6.974;2023-12-14T08:51:08;4.90;99.90
52513;DHT22;38422;53.172;6.974;2023-12-14T08:53:34;4.90;99.90
52513;DHT22;38422;53.172;6.974;2023-12-14T08:56:00;5.00;99.90
52513;DHT22;38422;53.172;6.974;2023-12-14T08:58:26;5.00;99.90
52513;DHT22;38422;53.172;6.974;2023-12-14T09:00:51;5.00;99.90
52513;DHT22;38422;53.172;6.974;2023-12-14T09:03:21;5.00;99.90
52513;DHT22;38422;53.172;6.974;2023-12-14T09:05:47;5.00;99.90
52513;DHT22;38422;53.172;6.974;2023-12-14T09:08:13;5.00;99.90
52513;DHT22;38422;53.172;6.974;2023-12-14T09:10:39;5.00;99.90
52513;DHT22;38422;53.172;6.974;2023-12-14T09:13:05;5.00;99.90
52513;DHT22;38422;53.172;6.974;2023-12-14T09:15:34;5.00;99.90
52513;DHT22;38422;53.172;6.974;2023-12-14T09:18:00;5.00;99.90
52513;DHT22;38422;53.172;6.974;2023-12-14T09:20:25;5.10;99.90
52513;DHT22;38422;53.172;6.974;2023-12-14T09:22:52;5.10;99.90
52513;DHT22;38422;53.172;6.974;2023-12-14T09:25:18;5.10;99.90
52513;DHT22;38422;53.172;6.974;2023-12-14T09:27:44;5.10;99.90
52513;DHT22;38422;53.172;6.974;2023-12-14T09:30:10;5.10;99.90
52513;DHT22;38422;53.172;6.974;2023-12-14T09:32:36;5.20;99.90
52513;DHT22;38422;53.172;6.974;2023-12-14T09:35:02;5.20;99.90
52513;DHT22;38422;53.172;6.974;2023-12-14T09:37:28;5.20;99.90
52513;DHT22;38422;53.172;6.974;2023-12-14T09:39:54;5.20;99.90
52513;DHT22;38422;53.172;6.974;2023-12-14T09:42:20;5.20;99.90
52513;DHT22;38422;53.172;6.974;2023-12-14T09:44:48;5.20;99.90
52513;DHT22;38422;53.172;6.974;2023-12-14T09:47:14;5.30;99.90
52513;DHT22;38422;53.172;6.974;2023-12-14T09:49:41;5.30;99.90
52513;DHT22;38422;53.172;6.974;2023-12-14T09:52:09;5.30;99.90
52513;DHT22;38422;53.172;6.974;2023-12-14T09:54:35;5.30;99.90
52513;DHT22;38422;53.172;6.974;2023-12-14T09:57:00;5.30;99.90
52513;DHT22;38422;53.172;6.974;2023-12-14T09:59:26;5.30;99.90
52513;DHT22;38422;53.172;6.974;2023-12-14T10:01:52;5.30;99.90
52513;DHT22;38422;53.172;6.974;2023-12-14T10:04:19;5.30;99.90
52513;DHT22;38422;53.172;6.974;2023-12-14T10:06:47;5.40;99.90
52513;DHT22;38422;53.172;6.974;2023-12-14T10:09:13;5.40;99.90
52513;DHT22;38422;53.172;6.974;2023-12-14T10:11:41;5.40;99.90
52513;DHT22;38422;53.172;6.974;2023-12-14T10:14:21;5.40;99.90
52513;DHT22;38422;53.172;6.974;2023-12-14T10:16:49;5.50;99.90
52513;DHT22;38422;53.172;6.974;2023-12-14T10:19:16;5.50;99.90
52513;DHT22;38422;53.172;6.974;2023-12-14T10:21:42;5.50;99.90
52513;DHT22;38422;53.172;6.974;2023-12-14T10:24:08;5.50;99.90
52513;DHT22;38422;53.172;6.974;2023-12-14T10:26:34;5.50;99.90
52513;DHT22;38422;53.172;6.974;2023-12-14T10:29:00;5.50;99.90
52513;DHT22;38422;53.172;6.974;2023-12-14T10:31:25;5.50;99.90
52513;DHT22;38422;53.172;6.974;2023-12-14T10:33:52;5.50;99.90
52513;DHT22;38422;53.172;6.974;2023-12-14T10:36:23;5.60;99.90
52513;DHT22;38422;53.172;6.974;2023-12-14T10:38:53;5.60;99.90
52513;DHT22;38422;53.172;6.974;2023-12-14T10:41:21;5.60;99.90
52513;DHT22;38422;53.172;6.974;2023-12-14T10:43:48;5.60;99.90
52513;DHT22;38422;53.172;6.974;2023-12-14T10:46:16;5.70;99.90
52513;DHT22;38422;53.172;6.974;2023-12-14T10:48:44;5.70;99.90
52513;DHT22;38422;53.172;6.974;2023-12-14T10:51:14;5.70;99.90
52513;DHT22;38422;53.172;6.974;2023-12-14T10:53:41;5.70;99.90
52513;DHT22;38422;53.172;6.974;2023-12-14T10:56:10;5.80;99.90
52513;DHT22;38422;53.172;6.974;2023-12-14T10:58:56;5.80;99.90
52513;DHT22;38422;53.172;6.974;2023-12-14T11:01:24;5.80;99.90
52513;DHT22;38422;53.172;6.974;2023-12-14T11:03:53;5.80;99.90
52513;DHT22;38422;53.172;6.974;2023-12-14T11:06:31;5.80;99.90
52513;DHT22;38422;53.172;6.974;2023-12-14T11:09:04;5.80;99.90
52513;DHT22;38422;53.172;6.974;2023-12-14T11:11:54;5.80;99.90
52513;DHT22;38422;53.172;6.974;2023-12-14T11:14:24;5.80;99.90
52513;DHT22;38422;53.172;6.974;2023-12-14T11:16:53;5.80;99.90
52513;DHT22;38422;53.172;6.974;2023-12-14T11:24:23;5.80;99.90
52513;DHT22;38422;53.172;6.974;2023-12-14T11:26:52;5.70;99.90
52513;DHT22;38422;53.172;6.974;2023-12-14T11:29:18;5.70;99.90
52513;DHT22;38422;53.172;6.974;2023-12-14T11:31:45;5.60;99.90
52513;DHT22;38422;53.172;6.974;2023-12-14T11:34:11;5.60;99.90
52513;DHT22;38422;53.172;6.974;2023-12-14T11:36:37;5.60;99.90
52513;DHT22;38422;53.172;6.974;2023-12-14T11:39:08;5.60;99.90
52513;DHT22;38422;53.172;6.974;2023-12-14T11:41:35;5.60;99.90
52513;DHT22;38422;53.172;6.974;2023-12-14T11:44:01;5.60;99.90
52513;DHT22;38422;53.172;6.974;2023-12-14T11:46:29;5.60;99.90
52513;DHT22;38422;53.172;6.974;2023-12-14T11:48:56;5.60;99.90
52513;DHT22;38422;53.172;6.974;2023-12-14T11:51:22;5.60;99.90
52513;DHT22;38422;53.172;6.974;2023-12-14T11:53:48;5.60;99.90
52513;DHT22;38422;53.172;6.974;2023-12-14T11:56:17;5.50;99.90
52513;DHT22;38422;53.172;6.974;2023-12-14T11:58:46;5.50;99.90
52513;DHT22;38422;53.172;6.974;2023-12-14T12:01:17;5.50;99.90
52513;DHT22;38422;53.172;6.974;2023-12-14T12:03:44;5.50;99.90
52513;DHT22;38422;53.172;6.974;2023-12-14T12:06:26;5.60;99.90
52513;DHT22;38422;53.172;6.974;2023-12-14T12:08:56;5.60;99.90
52513;DHT22;38422;53.172;6.974;2023-12-14T12:11:24;5.60;99.90
52513;DHT22;38422;53.172;6.974;2023-12-14T12:13:54;5.60;99.90
52513;DHT22;38422;53.172;6.974;2023-12-14T12:16:21;5.60;99.90
52513;DHT22;38422;53.172;6.974;2023-12-14T12:18:47;5.60;99.90
52513;DHT22;38422;53.172;6.974;2023-12-14T12:21:13;5.60;99.90
52513;DHT22;38422;53.172;6.974;2023-12-14T12:23:39;5.60;99.90
52513;DHT22;38422;53.172;6.974;2023-12-14T12:26:04;5.60;99.90
52513;DHT22;38422;53.172;6.974;2023-12-14T12:28:31;5.60;99.90
52513;DHT22;38422;53.172;6.974;2023-12-14T12:30:57;5.60;99.90
52513;DHT22;38422;53.172;6.974;2023-12-14T12:33:25;5.60;99.90
52513;DHT22;38422;53.172;6.974;2023-12-14T12:35:51;5.60;99.90
52513;DHT22;38422;53.172;6.974;2023-12-14T12:38:17;5.60;99.90
52513;DHT22;38422;53.172;6.974;2023-12-14T12:40:44;5.60;99.90
52513;DHT22;38422;53.172;6.974;2023-12-14T12:43:10;5.60;99.90
52513;DHT22;38422;53.172;6.974;2023-12-14T12:45:36;5.60;99.90
52513;DHT22;38422;53.172;6.974;2023-12-14T12:48:05;5.70;99.90
52513;DHT22;38422;53.172;6.974;2023-12-14T12:50:38;5.70;99.90
52513;DHT22;38422;53.172;6.974;2023-12-14T12:53:05;5.70;99.90
52513;DHT22;38422;53.172;6.974;2023-12-14T12:55:31;5.70;99.90
52513;DHT22;38422;53.172;6.974;2023-12-14T12:57:56;5.70;99.90
52513;DHT22;38422;53.172;6.974;2023-12-14T13:00:23;5.80;99.90
52513;DHT22;38422;53.172;6.974;2023-12-14T13:02:49;5.80;99.90
52513;DHT22;38422;53.172;6.974;2023-12-14T13:05:15;5.70;99.90
52513;DHT22;38422;53.172;6.974;2023-12-14T13:07:44;5.70;99.90
52513;DHT22;38422;53.172;6.974;2023-12-14T13:10:10;5.80;99.90
52513;DHT22;38422;53.172;6.974;2023-12-14T13:12:36;5.70;99.90
52513;DHT22;38422;53.172;6.974;2023-12-14T13:15:02;5.70;99.90
52513;DHT22;38422;53.172;6.974;2023-12-14T13:17:28;5.80;99.90
52513;DHT22;38422;53.172;6.974;2023-12-14T13:19:53;5.70;99.90
52513;DHT22;38422;53.172;6.974;2023-12-14T13:22:20;5.70;99.90
52513;DHT22;38422;53.172;6.974;2023-12-14T13:24:46;5.80;99.90
52513;DHT22;38422;53.172;6.974;2023-12-14T13:27:12;5.80;99.90
52513;DHT22;38422;53.172;6.974;2023-12-14T13:29:37;5.80;99.90
52513;DHT22;38422;53.172;6.974;2023-12-14T13:32:05;5.80;99.90
52513;DHT22;38422;53.172;6.974;2023-12-14T13:34:30;5.80;99.90
52513;DHT22;38422;53.172;6.974;2023-12-14T13:36:58;5.80;99.90
52513;DHT22;38422;53.172;6.974;2023-12-14T13:39:26;5.80;99.90
52513;DHT22;38422;53.172;6.974;2023-12-14T13:41:52;5.80;99.90
52513;DHT22;38422;53.172;6.974;2023-12-14T13:44:18;5.80;99.90
52513;DHT22;38422;53.172;6.974;2023-12-14T13:46:44;5.80;99.90
52513;DHT22;38422;53.172;6.974;2023-12-14T13:49:10;5.80;99.90
52513;DHT22;38422;53.172;6.974;2023-12-14T13:51:35;5.80;99.90
52513;DHT22;38422;53.172;6.974;2023-12-14T13:54:01;5.70;99.90
52513;DHT22;38422;53.172;6.974;2023-12-14T13:56:27;5.70;99.90
52513;DHT22;38422;53.172;6.974;2023-12-14T13:58:56;5.70;99.90
52513;DHT22;38422;53.172;6.974;2023-12-14T14:01:22;5.70;99.90
52513;DHT22;38422;53.172;6.974;2023-12-14T14:03:47;5.70;99.90
52513;DHT22;38422;53.172;6.974;2023-12-14T14:06:14;5.70;99.90
52513;DHT22;38422;53.172;6.974;2023-12-14T14:08:39;5.70;99.90
52513;DHT22;38422;53.172;6.974;2023-12-14T14:11:05;5.70;99.90
52513;DHT22;38422;53.172;6.974;2023-12-14T14:13:31;5.70;99.90
52513;DHT22;38422;53.172;6.974;2023-12-14T14:15:58;5.70;99.90
52513;DHT22;38422;53.172;6.974;2023-12-14T14:18:24;5.70;99.90
52513;DHT22;38422;53.172;6.974;2023-12-14T14:20:50;5.70;99.90
52513;DHT22;38422;53.172;6.974;2023-12-14T14:23:15;5.70;99.90
52513;DHT22;38422;53.172;6.974;2023-12-14T14:25:41;5.70;99.90
52513;DHT22;38422;53.172;6.974;2023-12-14T14:28:07;5.70;99.90
52513;DHT22;38422;53.172;6.974;2023-12-14T14:30:33;5.70;99.90
52513;DHT22;38422;53.172;6.974;2023-12-14T14:32:59;5.70;99.90
52513;DHT22;38422;53.172;6.974;2023-12-14T14:35:24;5.70;99.90
52513;DHT22;38422;53.172;6.974;2023-12-14T14:37:50;5.70;99.90
52513;DHT22;38422;53.172;6.974;2023-12-14T14:40:17;5.70;99.90
52513;DHT22;38422;53.172;6.974;2023-12-14T14:42:46;5.70;99.90
52513;DHT22;38422;53.172;6.974;2023-12-14T14:45:12;5.70;99.90
52513;DHT22;38422;53.172;6.974;2023-12-14T14:47:41;5.70;99.90
52513;DHT22;38422;53.172;6.974;2023-12-14T14:50:08;5.70;99.90
52513;DHT22;38422;53.172;6.974;2023-12-14T14:52:34;5.70;99.90
52513;DHT22;38422;53.172;6.974;2023-12-14T14:55:00;5.70;99.90
52513;DHT22;38422;53.172;6.974;2023-12-14T14:57:26;5.70;99.90
52513;DHT22;38422;53.172;6.974;2023-12-14T14:59:52;5.70;99.90
52513;DHT22;38422;53.172;6.974;2023-12-14T15:02:18;5.70;99.90
52513;DHT22;38422;53.172;6.974;2023-12-14T15:04:44;5.70;99.90
52513;DHT22;38422;53.172;6.974;2023-12-14T15:07:10;5.70;99.90
52513;DHT22;38422;53.172;6.974;2023-12-14T15:09:35;5.70;99.90
52513;DHT22;38422;53.172;6.974;2023-12-14T15:12:01;5.70;99.90
52513;DHT22;38422;53.172;6.974;2023-12-14T15:14:27;5.70;99.90
52513;DHT22;38422;53.172;6.974;2023-12-14T15:16:54;5.60;99.90
52513;DHT22;38422;53.172;6.974;2023-12-14T15:19:20;5.60;99.90
52513;DHT22;38422;53.172;6.974;2023-12-14T15:21:45;5.50;99.90
52513;DHT22;38422;53.172;6.974;2023-12-14T15:24:11;5.50;99.90
52513;DHT22;38422;53.172;6.974;2023-12-14T15:26:37;5.50;99.90
52513;DHT22;38422;53.172;6.974;2023-12-14T15:29:03;5.40;99.90
52513;DHT22;38422;53.172;6.974;2023-12-14T15:31:29;5.30;99.90
52513;DHT22;38422;53.172;6.974;2023-12-14T15:33:55;5.30;99.90
52513;DHT22;38422;53.172;6.974;2023-12-14T15:36:22;5.30;99.90
52513;DHT22;38422;53.172;6.974;2023-12-14T15:38:48;5.30;99.90
52513;DHT22;38422;53.172;6.974;2023-12-14T15:41:16;5.30;99.90
52513;DHT22;38422;53.172;6.974;2023-12-14T15:43:42;5.30;99.90
52513;DHT22;38422;53.172;6.974;2023-12-14T15:46:08;5.30;99.90
52513;DHT22;38422;53.172;6.974;2023-12-14T15:48:34;5.30;99.90